Time;durP1;ratioP1;P1;durP2;ratioP2;P2;SDS_P1;SDS_P2;PMS_P1;PMS_P2;Temp;Humidity;BMP_temperature;BMP_pressure;BME280_temperature;BME280_humidity;BME280_pressure;Samples;Min_cycle;Max_cycle;Signal;HPM_P1;HPM_P2
2021/12/31 00:01:07;;;;;;;0.60;0.60;;;;;;;;;;10257299;28;20039;-70
2021/12/31 00:06:10;;;;;;;1.17;1.00;;;;;;;;;;10260890;28;20469;-70
2021/12/31 00:11:15;;;;;;;1.20;0.70;;;;;;;;;;10263099;28;20043;-69
2021/12/31 00:16:18;;;;;;;1.67;1.10;;;;;;;;;;10260104;28;20247;-69
2021/12/31 00:21:21;;;;;;;0.82;0.60;;;;;;;;;;10254914;28;20032;-69
2021/12/31 00:26:26;;;;;;;1.67;0.90;;;;;;;;;;10253989;28;20066;-69
2021/12/31 00:31:29;;;;;;;1.75;0.90;;;;;;;;;;10252476;28;20103;-69
2021/12/31 00:36:39;;;;;;;1.03;0.60;;;;;;;;;;10259491;28;20129;-69
2021/12/31 00:41:43;;;;;;;0.70;0.70;;;;;;;;;;10257164;28;20305;-70
2021/12/31 00:46:47;;;;;;;0.70;0.70;;;;;;;;;;10263022;28;20049;-70
2021/12/31 00:51:50;;;;;;;1.02;0.47;;;;;;;;;;10277582;28;20042;-70
2021/12/31 00:56:59;;;;;;;0.70;0.70;;;;;;;;;;10261095;28;20378;-71
2021/12/31 01:02:04;;;;;;;1.13;0.80;;;;;;;;;;10264285;28;20302;-70
2021/12/31 01:07:08;;;;;;;0.60;0.60;;;;;;;;;;10261333;28;20035;-69
2021/12/31 01:12:14;;;;;;;1.37;0.50;;;;;;;;;;10254137;28;20490;-70
2021/12/31 01:17:22;;;;;;;0.82;0.50;;;;;;;;;;10252973;28;20047;-70
2021/12/31 01:22:29;;;;;;;2.05;0.50;;;;;;;;;;10256051;28;20102;-69
2021/12/31 01:27:34;;;;;;;0.63;0.40;;;;;;;;;;10247334;28;20496;-69
2021/12/31 01:32:37;;;;;;;0.52;0.52;;;;;;;;;;10263280;28;20030;-70
2021/12/31 01:37:40;;;;;;;1.13;0.68;;;;;;;;;;10296597;28;20095;-70
2021/12/31 01:42:45;;;;;;;1.70;0.65;;;;;;;;;;10253557;28;20043;-70
2021/12/31 01:48:04;;;;;;;2.08;0.80;;;;;;;;;;10258332;28;20039;-69
2021/12/31 01:53:08;;;;;;;2.22;0.60;;;;;;;;;;10263446;28;20039;-68
2021/12/31 01:58:11;;;;;;;;;;;;;;;;;;10252750;28;20077;-69
2021/12/31 02:03:18;;;;;;;0.50;0.45;;;;;;;;;;10249125;28;19930;-69
2021/12/31 02:08:21;;;;;;;1.20;0.70;;;;;;;;;;10253627;28;20047;-70
2021/12/31 02:13:25;;;;;;;0.63;0.50;;;;;;;;;;10256543;28;20137;-70
2021/12/31 02:18:30;;;;;;;;;;;;;;;;;;10257313;28;20302;-70
2021/12/31 02:23:42;;;;;;;0.63;0.57;;;;;;;;;;10254428;28;19934;-70
2021/12/31 02:28:45;;;;;;;0.60;0.60;;;;;;;;;;10253245;28;20523;-69
2021/12/31 02:33:49;;;;;;;1.47;0.50;;;;;;;;;;10255613;28;20038;-70
2021/12/31 02:38:53;;;;;;;0.50;0.50;;;;;;;;;;10257192;28;20046;-69
2021/12/31 02:43:56;;;;;;;1.17;1.08;;;;;;;;;;10247583;28;20043;-69
2021/12/31 02:48:59;;;;;;;0.23;0.17;;;;;;;;;;10245612;28;20400;-69
2021/12/31 02:54:08;;;;;;;0.50;0.50;;;;;;;;;;10249508;28;20631;-70
2021/12/31 02:59:11;;;;;;;0.90;0.60;;;;;;;;;;10254808;28;20098;-71
2021/12/31 03:04:15;;;;;;;0.87;0.70;;;;;;;;;;10252967;28;20057;-69
2021/12/31 03:09:23;;;;;;;1.67;0.50;;;;;;;;;;10249396;28;20069;-70
2021/12/31 03:14:27;;;;;;;0.55;0.50;;;;;;;;;;10256506;28;20835;-69
2021/12/31 03:19:30;;;;;;;0.30;0.30;;;;;;;;;;10251841;28;20050;-70
2021/12/31 03:24:38;;;;;;;1.33;0.60;;;;;;;;;;10259858;28;20419;-70
2021/12/31 03:29:41;;;;;;;0.73;0.73;;;;;;;;;;10262905;28;20039;-69
2021/12/31 03:34:45;;;;;;;0.98;0.57;;;;;;;;;;10295910;28;20026;-72
2021/12/31 03:39:49;;;;;;;0.65;0.60;;;;;;;;;;10278946;28;20039;-72
2021/12/31 03:44:52;;;;;;;1.10;0.80;;;;;;;;;;10262013;28;20785;-69
2021/12/31 03:49:55;;;;;;;0.43;0.40;;;;;;;;;;10264472;28;20042;-69
2021/12/31 03:54:59;;;;;;;3.50;0.60;;;;;;;;;;10259474;28;20558;-70
2021/12/31 04:00:04;;;;;;;0.95;0.80;;;;;;;;;;10257165;28;20041;-69
2021/12/31 04:05:07;;;;;;;0.60;0.40;;;;;;;;;;10256986;28;20035;-70
2021/12/31 04:10:11;;;;;;;0.73;0.60;;;;;;;;;;10253911;28;20357;-69
2021/12/31 04:15:14;;;;;;;0.60;0.60;;;;;;;;;;10264325;28;20086;-69
2021/12/31 04:20:21;;;;;;;1.70;0.85;;;;;;;;;;10257767;28;20824;-70
2021/12/31 04:25:25;;;;;;;2.08;1.05;;;;;;;;;;10260746;28;20043;-69
2021/12/31 04:30:28;;;;;;;1.33;0.85;;;;;;;;;;10257336;28;20073;-68
2021/12/31 04:35:31;;;;;;;1.92;0.90;;;;;;;;;;10275875;28;20623;-71
2021/12/31 04:40:35;;;;;;;3.20;1.40;;;;;;;;;;10252788;28;20447;-70
2021/12/31 04:45:38;;;;;;;0.95;0.65;;;;;;;;;;10254406;28;20550;-71
2021/12/31 04:50:41;;;;;;;1.05;0.65;;;;;;;;;;10251139;28;20470;-71
2021/12/31 04:55:45;;;;;;;1.30;1.00;;;;;;;;;;10253836;28;20496;-70
2021/12/31 05:00:48;;;;;;;1.45;1.20;;;;;;;;;;10255914;28;20128;-71
2021/12/31 05:05:51;;;;;;;0.87;0.60;;;;;;;;;;10259816;28;20109;-72
2021/12/31 05:10:55;;;;;;;1.63;1.20;;;;;;;;;;10261867;28;20031;-71
2021/12/31 05:16:02;;;;;;;1.45;0.80;;;;;;;;;;10260028;28;20117;-70
2021/12/31 05:21:05;;;;;;;1.30;1.00;;;;;;;;;;10254250;28;20047;-71
2021/12/31 05:26:09;;;;;;;2.05;1.30;;;;;;;;;;10274844;28;20042;-70
2021/12/31 05:31:12;;;;;;;4.22;1.30;;;;;;;;;;10258110;28;20451;-71
2021/12/31 05:36:16;;;;;;;2.42;0.95;;;;;;;;;;10258973;28;20031;-71
2021/12/31 05:41:19;;;;;;;;;;;;;;;;;;10288735;28;20560;-70
2021/12/31 05:46:23;;;;;;;1.00;0.80;;;;;;;;;;10254360;28;19926;-71
2021/12/31 05:51:27;;;;;;;1.30;0.98;;;;;;;;;;10251010;28;20086;-71
2021/12/31 05:56:30;;;;;;;2.53;1.08;;;;;;;;;;10257756;28;20043;-71
2021/12/31 06:01:34;;;;;;;3.90;1.70;;;;;;;;;;10254105;28;20035;-71
2021/12/31 06:06:37;;;;;;;1.55;0.93;;;;;;;;;;10252660;28;20035;-70
2021/12/31 06:11:40;;;;;;;2.40;1.20;;;;;;;;;;10250981;28;20031;-70
2021/12/31 06:16:46;;;;;;;2.53;1.00;;;;;;;;;;10246582;28;20036;-70
2021/12/31 06:21:49;;;;;;;2.28;1.63;;;;;;;;;;10257286;28;20309;-70
2021/12/31 06:26:52;;;;;;;2.50;1.58;;;;;;;;;;10257217;28;20395;-71
2021/12/31 06:31:57;;;;;;;4.70;1.33;;;;;;;;;;10257525;28;20107;-71
2021/12/31 06:37:00;;;;;;;1.40;1.02;;;;;;;;;;10257582;28;20465;-71
2021/12/31 06:42:03;;;;;;;1.38;1.00;;;;;;;;;;10259720;28;20495;-70
2021/12/31 06:47:08;;;;;;;3.20;1.23;;;;;;;;;;10251850;28;20054;-71
2021/12/31 06:52:11;;;;;;;2.85;1.30;;;;;;;;;;10254516;28;20407;-69
2021/12/31 06:57:14;;;;;;;1.65;1.00;;;;;;;;;;10250079;28;20055;-70
2021/12/31 07:02:18;;;;;;;1.87;1.20;;;;;;;;;;10257198;28;20660;-69
2021/12/31 07:07:22;;;;;;;0.80;0.65;;;;;;;;;;10256317;28;20044;-71
2021/12/31 07:12:24;;;;;;;1.30;0.90;;;;;;;;;;10253972;28;20035;-71
2021/12/31 07:17:29;;;;;;;1.50;0.80;;;;;;;;;;10252270;28;20149;-72
2021/12/31 07:22:33;;;;;;;2.00;0.88;;;;;;;;;;10250747;28;20104;-72
2021/12/31 07:27:36;;;;;;;;;;;;;;;;;;10250956;28;20038;-71
2021/12/31 07:32:40;;;;;;;2.90;1.58;;;;;;;;;;10289588;28;19958;-71
2021/12/31 07:37:43;;;;;;;1.52;1.17;;;;;;;;;;10290054;28;20032;-71
2021/12/31 07:42:46;;;;;;;2.37;0.87;;;;;;;;;;10251730;28;20126;-71
2021/12/31 07:47:50;;;;;;;1.88;1.08;;;;;;;;;;10253319;28;20053;-71
2021/12/31 07:52:53;;;;;;;0.90;0.90;;;;;;;;;;10248194;28;20035;-70
2021/12/31 07:57:56;;;;;;;3.43;1.30;;;;;;;;;;10251322;28;20534;-72
2021/12/31 08:03:01;;;;;;;19.00;9.70;;;;;;;;;;10248988;28;20039;-71
2021/12/31 08:08:06;;;;;;;9.85;7.72;;;;;;;;;;10259182;28;20121;-71
2021/12/31 08:13:09;;;;;;;5.25;4.75;;;;;;;;;;10257637;28;20045;-70
2021/12/31 08:18:13;;;;;;;3.55;2.17;;;;;;;;;;10253147;28;20046;-70
2021/12/31 08:23:16;;;;;;;2.67;1.55;;;;;;;;;;10250863;28;20126;-71
2021/12/31 08:28:19;;;;;;;3.70;1.50;;;;;;;;;;10259780;28;20065;-71
2021/12/31 08:33:23;;;;;;;3.10;1.60;;;;;;;;;;10255959;28;20058;-70
2021/12/31 08:38:26;;;;;;;1.65;1.20;;;;;;;;;;10256339;28;20086;-70
2021/12/31 08:43:29;;;;;;;1.37;1.00;;;;;;;;;;10272300;28;20035;-69
2021/12/31 08:48:33;;;;;;;1.83;1.10;;;;;;;;;;10258948;28;20448;-71
2021/12/31 08:53:36;;;;;;;2.35;1.25;;;;;;;;;;10256704;28;20042;-70
2021/12/31 08:58:39;;;;;;;2.53;1.23;;;;;;;;;;10257481;28;20038;-71
2021/12/31 09:03:43;;;;;;;2.97;0.90;;;;;;;;;;10256973;28;20542;-71
2021/12/31 09:08:46;;;;;;;2.70;1.30;;;;;;;;;;10259654;28;20457;-71
2021/12/31 09:13:51;;;;;;;3.28;1.30;;;;;;;;;;10259245;28;20035;-71
2021/12/31 09:18:54;;;;;;;;;;;;;;;;;;10258275;28;20105;-71
2021/12/31 09:23:57;;;;;;;;;;;;;;;;;;10255260;28;19926;-70
2021/12/31 09:29:06;;;;;;;;;;;;;;;;;;10291048;28;20318;-72
2021/12/31 09:34:09;;;;;;;;;;;;;;;;;;10275591;28;19925;-73
2021/12/31 09:39:12;;;;;;;;;;;;;;;;;;10253431;23;19922;-76
2021/12/31 09:44:18;;;;;;;;;;;;;;;;;;10195524;29;19986;-77
2021/12/31 09:49:21;;;;;;;;;;;;;;;;;;10200879;29;19922;-77
2021/12/31 09:54:24;;;;;;;;;;;;;;;;;;10224329;29;19938;-77
2021/12/31 09:59:27;;;;;;;;;;;;;;;;;;10204171;29;19923;-77
2021/12/31 10:04:30;;;;;;;;;;;;;;;;;;10217244;29;20073;-80
2021/12/31 10:09:33;;;;;;;;;;;;;;;;;;10198744;29;19949;-83
2021/12/31 10:14:41;;;;;;;;;;;;;;;;;;10214196;29;19934;-81
2021/12/31 10:19:44;;;;;;;;;;;;;;;;;;10216243;29;19930;-82
2021/12/31 10:24:48;;;;;;;;;;;;;;;;;;10200929;29;19973;-81
2021/12/31 10:29:51;;;;;;;;;;;;;;;;;;10203118;29;19922;-81
2021/12/31 10:34:54;;;;;;;;;;;;;;;;;;10198982;29;19961;-79
2021/12/31 10:39:57;;;;;;;;;;;;;;;;;;10197232;29;19984;-81
2021/12/31 10:45:00;;;;;;;;;;;;;;;;;;10204440;29;20426;-81
2021/12/31 10:50:03;;;;;;;;;;;;;;;;;;10198525;29;20379;-80
2021/12/31 10:55:15;;;;;;;;;;;;;;;;;;10204529;29;19930;-81
2021/12/31 11:00:18;;;;;;;;;;;;;;;;;;10193412;29;19986;-80
2021/12/31 11:05:21;;;;;;;;;;;;;;;;;;10200488;29;19923;-82
2021/12/31 11:10:24;;;;;;;;;;;;;;;;;;10197514;29;19923;-81
2021/12/31 11:15:29;;;;;;;3.10;1.50;;;;;;;;;;10210360;29;20493;-81
2021/12/31 11:20:32;;;;;;;1.65;1.50;;;;;;;;;;10224843;28;20036;-80
2021/12/31 11:25:36;;;;;;;3.05;1.50;;;;;;;;;;10203837;29;20067;-82
2021/12/31 11:30:43;;;;;;;1.60;1.50;;;;;;;;;;10194050;29;20048;-83
2021/12/31 11:35:58;;;;;;;1.90;1.80;;;;;;;;;;10196196;29;20512;-81
2021/12/31 11:41:02;;;;;;;2.20;1.98;;;;;;;;;;10196769;29;20044;-79
2021/12/31 11:46:23;;;;;;;1.83;1.73;;;;;;;;;;10207901;29;20063;-79
2021/12/31 11:51:33;;;;;;;1.80;1.70;;;;;;;;;;10208871;29;20099;-80
2021/12/31 11:56:52;;;;;;;3.30;2.75;;;;;;;;;;10211041;29;20068;-81
2021/12/31 12:02:05;;;;;;;1.40;1.40;;;;;;;;;;10208447;29;20117;-79
2021/12/31 12:07:12;;;;;;;2.58;2.33;;;;;;;;;;10197378;29;20036;-81
2021/12/31 12:12:26;;;;;;;2.58;2.33;;;;;;;;;;10204991;29;20127;-82
2021/12/31 12:17:43;;;;;;;2.10;1.90;;;;;;;;;;10201568;29;20395;-84
2021/12/31 12:22:51;;;;;;;2.00;1.90;;;;;;;;;;10205235;29;20035;-80
2021/12/31 12:27:56;;;;;;;1.90;1.80;;;;;;;;;;10211806;29;20036;-80
2021/12/31 12:33:16;;;;;;;1.83;1.73;;;;;;;;;;10217929;29;20099;-82
2021/12/31 12:38:22;;;;;;;1.63;1.52;;;;;;;;;;10206204;29;20115;-81
2021/12/31 12:43:26;;;;;;;2.08;1.70;;;;;;;;;;10199058;29;20645;-83
2021/12/31 12:48:30;;;;;;;1.80;1.70;;;;;;;;;;10206467;29;20040;-82
2021/12/31 12:53:37;;;;;;;1.77;1.67;;;;;;;;;;10204890;29;20048;-78
2021/12/31 12:58:41;;;;;;;1.70;1.60;;;;;;;;;;10222957;29;20139;-82
2021/12/31 13:03:49;;;;;;;3.03;1.70;;;;;;;;;;10218361;29;20037;-80
2021/12/31 13:09:03;;;;;;;2.15;1.55;;;;;;;;;;10214042;29;20134;-79
2021/12/31 13:14:11;;;;;;;2.10;1.90;;;;;;;;;;10224017;29;20068;-81
2021/12/31 13:19:15;;;;;;;1.75;1.65;;;;;;;;;;10221738;29;20082;-83
2021/12/31 13:24:24;;;;;;;2.45;1.50;;;;;;;;;;10215407;29;20034;-81
2021/12/31 13:29:32;;;;;;;1.60;1.50;;;;;;;;;;10228172;29;20392;-83
2021/12/31 13:34:39;;;;;;;1.98;1.30;;;;;;;;;;10233110;29;20039;-83
2021/12/31 13:39:44;;;;;;;0.90;0.90;;;;;;;;;;10219271;29;20071;-82
2021/12/31 13:44:49;;;;;;;0.40;0.40;;;;;;;;;;10217921;29;20043;-82
2021/12/31 13:49:53;;;;;;;2.28;0.77;;;;;;;;;;10225823;29;20074;-80
2021/12/31 13:54:59;;;;;;;0.73;0.57;;;;;;;;;;10208161;29;20118;-83
2021/12/31 14:00:10;;;;;;;1.58;0.75;;;;;;;;;;10216421;29;20036;-81
2021/12/31 14:05:13;;;;;;;0.47;0.47;;;;;;;;;;10214738;29;20135;-84
2021/12/31 14:10:16;;;;;;;;;;;;;;;;;;10209570;29;20044;-81
2021/12/31 14:15:21;;;;;;;1.02;0.50;;;;;;;;;;10224704;29;19923;-82
2021/12/31 14:20:25;;;;;;;2.78;0.85;;;;;;;;;;10216229;29;20047;-81
2021/12/31 14:25:30;;;;;;;0.98;0.70;;;;;;;;;;10208147;29;20373;-82
2021/12/31 14:30:35;;;;;;;1.27;0.70;;;;;;;;;;10208676;29;20035;-83
2021/12/31 14:35:42;;;;;;;0.82;0.50;;;;;;;;;;10201201;29;20083;-81
2021/12/31 14:40:48;;;;;;;2.50;0.80;;;;;;;;;;10203700;29;20043;-81
2021/12/31 14:45:52;;;;;;;1.02;0.70;;;;;;;;;;10221809;23;20027;-76
2021/12/31 14:50:55;;;;;;;1.25;0.85;;;;;;;;;;10244516;28;20076;-76
2021/12/31 14:55:58;;;;;;;1.60;0.80;;;;;;;;;;10243252;28;20050;-73
2021/12/31 15:01:03;;;;;;;0.60;0.50;;;;;;;;;;10238886;28;20562;-74
2021/12/31 15:06:07;;;;;;;0.82;0.55;;;;;;;;;;10237174;28;20419;-75
2021/12/31 15:11:10;;;;;;;1.35;0.85;;;;;;;;;;10235718;28;20495;-75
2021/12/31 15:16:16;;;;;;;20.55;5.38;;;;;;;;;;10234876;28;20081;-74
2021/12/31 15:21:20;;;;;;;4.45;1.83;;;;;;;;;;10230962;28;20035;-74
2021/12/31 15:26:23;;;;;;;2.33;1.30;;;;;;;;;;10231246;29;20567;-74
2021/12/31 15:31:28;;;;;;;1.88;1.10;;;;;;;;;;10235577;28;20039;-74
2021/12/31 15:36:31;;;;;;;3.22;1.40;;;;;;;;;;10234400;29;20487;-73
2021/12/31 15:41:38;;;;;;;2.97;1.60;;;;;;;;;;10219491;29;20031;-75
2021/12/31 15:46:44;;;;;;;1.67;1.13;;;;;;;;;;10229940;28;20381;-74
2021/12/31 15:51:47;;;;;;;3.70;1.50;;;;;;;;;;10249260;28;20055;-74
2021/12/31 15:56:50;;;;;;;4.95;1.80;;;;;;;;;;10255742;28;20518;-75
2021/12/31 16:01:55;;;;;;;2.87;1.90;;;;;;;;;;10250911;29;20114;-75
2021/12/31 16:06:58;;;;;;;4.85;1.67;;;;;;;;;;10248629;28;20963;-75
2021/12/31 16:12:01;;;;;;;3.80;1.40;;;;;;;;;;10231267;28;20139;-75
2021/12/31 16:17:06;;;;;;;3.72;1.45;;;;;;;;;;10245814;28;20063;-74
2021/12/31 16:22:10;;;;;;;4.05;1.75;;;;;;;;;;10231475;29;20047;-74
2021/12/31 16:27:13;;;;;;;1.48;1.27;;;;;;;;;;10228900;28;20035;-73
2021/12/31 16:32:17;;;;;;;3.37;1.50;;;;;;;;;;10235643;28;20035;-74
2021/12/31 16:37:21;;;;;;;6.45;1.73;;;;;;;;;;10244848;28;20085;-75
2021/12/31 16:42:24;;;;;;;2.70;1.53;;;;;;;;;;10239622;29;20467;-75
2021/12/31 16:47:28;;;;;;;2.60;1.17;;;;;;;;;;10239240;28;20063;-74
2021/12/31 16:52:31;;;;;;;2.90;1.33;;;;;;;;;;10233186;28;20051;-73
2021/12/31 16:57:35;;;;;;;3.70;1.33;;;;;;;;;;10234714;28;20048;-75
2021/12/31 17:02:39;;;;;;;3.08;1.25;;;;;;;;;;10239782;28;20040;-74
2021/12/31 17:07:42;;;;;;;1.83;1.05;;;;;;;;;;10236329;28;20114;-74
2021/12/31 17:12:47;;;;;;;3.67;1.70;;;;;;;;;;10238283;28;20043;-75
2021/12/31 17:17:52;;;;;;;3.67;1.67;;;;;;;;;;10236825;28;20126;-76
2021/12/31 17:22:56;;;;;;;6.25;1.70;;;;;;;;;;10230133;28;20039;-75
2021/12/31 17:28:00;;;;;;;5.07;2.00;;;;;;;;;;10234594;28;20034;-75
2021/12/31 17:33:04;;;;;;;7.70;2.17;;;;;;;;;;10256453;28;20123;-75
2021/12/31 17:38:08;;;;;;;5.18;1.80;;;;;;;;;;10261109;28;20357;-74
2021/12/31 17:43:11;;;;;;;6.85;1.80;;;;;;;;;;10229386;28;20110;-74
2021/12/31 17:48:15;;;;;;;3.40;1.33;;;;;;;;;;10232718;29;20472;-75
2021/12/31 17:53:18;;;;;;;2.47;1.50;;;;;;;;;;10223465;29;20054;-76
2021/12/31 17:58:22;;;;;;;1.20;0.97;;;;;;;;;;10231709;29;20035;-73
2021/12/31 18:03:27;;;;;;;2.90;1.25;;;;;;;;;;10236635;28;20700;-75
2021/12/31 18:08:31;;;;;;;2.40;1.52;;;;;;;;;;10235381;28;20134;-75
2021/12/31 18:13:34;;;;;;;1.77;1.05;;;;;;;;;;10236782;28;20142;-75
2021/12/31 18:18:39;;;;;;;1.67;1.02;;;;;;;;;;10228450;29;20528;-75
2021/12/31 18:23:44;;;;;;;0.90;0.80;;;;;;;;;;10228693;28;20114;-75
2021/12/31 18:28:48;;;;;;;1.13;0.90;;;;;;;;;;10247127;28;20535;-75
2021/12/31 18:33:52;;;;;;;2.63;0.90;;;;;;;;;;10240265;29;20479;-75
2021/12/31 18:38:56;;;;;;;7.40;2.00;;;;;;;;;;10254012;28;20146;-74
2021/12/31 18:43:59;;;;;;;0.60;0.60;;;;;;;;;;10242435;28;20028;-75
2021/12/31 18:49:07;;;;;;;0.97;0.63;;;;;;;;;;10234490;28;20055;-75
2021/12/31 18:54:10;;;;;;;0.70;0.70;;;;;;;;;;10231441;28;20634;-74
2021/12/31 18:59:13;;;;;;;2.00;0.90;;;;;;;;;;10239738;28;20040;-74
2021/12/31 19:04:17;;;;;;;1.40;1.00;;;;;;;;;;10238992;28;20043;-75
2021/12/31 19:09:20;;;;;;;2.33;1.30;;;;;;;;;;10243955;28;20098;-75
2021/12/31 19:14:23;;;;;;;0.63;0.63;;;;;;;;;;10234202;28;20452;-75
2021/12/31 19:19:28;;;;;;;1.05;0.57;;;;;;;;;;10228737;29;20047;-75
2021/12/31 19:24:32;;;;;;;0.77;0.70;;;;;;;;;;10227818;28;20059;-74
2021/12/31 19:29:37;;;;;;;;;;;;;;;;;;10226663;28;20057;-75
2021/12/31 19:34:40;;;;;;;;;;;;;;;;;;10230895;28;19922;-75
2021/12/31 19:39:44;;;;;;;2.40;0.60;;;;;;;;;;10218814;29;20284;-74
2021/12/31 19:44:48;;;;;;;1.50;1.10;;;;;;;;;;10231061;28;20039;-75
2021/12/31 19:49:51;;;;;;;1.43;1.00;;;;;;;;;;10227889;28;20046;-75
2021/12/31 19:54:55;;;;;;;1.30;0.80;;;;;;;;;;10242799;28;20031;-74
2021/12/31 20:00:01;;;;;;;1.83;1.20;;;;;;;;;;10233089;28;20127;-75
2021/12/31 20:05:04;;;;;;;2.43;1.27;;;;;;;;;;10237658;28;20055;-75
2021/12/31 20:10:10;;;;;;;2.08;1.33;;;;;;;;;;10238429;28;20121;-75
2021/12/31 20:15:13;;;;;;;3.08;1.65;;;;;;;;;;10239375;28;20043;-75
2021/12/31 20:20:17;;;;;;;5.00;1.33;;;;;;;;;;10233895;29;20130;-74
2021/12/31 20:25:22;;;;;;;0.98;0.80;;;;;;;;;;10238723;28;20050;-76
2021/12/31 20:30:25;;;;;;;3.17;1.52;;;;;;;;;;10239836;28;20570;-76
2021/12/31 20:35:28;;;;;;;1.15;1.02;;;;;;;;;;10239844;28;20138;-76
2021/12/31 20:40:33;;;;;;;1.42;0.70;;;;;;;;;;10240195;28;20070;-76
2021/12/31 20:45:36;;;;;;;1.30;0.98;;;;;;;;;;10236123;29;20035;-76
2021/12/31 20:50:39;;;;;;;1.15;0.65;;;;;;;;;;10235707;29;20039;-74
2021/12/31 20:55:44;;;;;;;1.50;0.73;;;;;;;;;;10242990;28;20043;-75
2021/12/31 21:00:47;;;;;;;1.75;0.88;;;;;;;;;;10227079;29;20291;-78
2021/12/31 21:05:50;;;;;;;3.47;1.13;;;;;;;;;;10230769;29;20031;-74
2021/12/31 21:10:55;;;;;;;3.90;0.88;;;;;;;;;;10235572;28;20063;-74
2021/12/31 21:15:58;;;;;;;2.38;0.90;;;;;;;;;;10232198;29;20042;-74
2021/12/31 21:21:01;;;;;;;;;;;;;;;;;;10229828;29;20129;-76
2021/12/31 21:26:03;;;;;;;;;;;;;;;;;;10226972;29;19993;-75
2021/12/31 21:31:20;;;;;;;;;;;;;;;;;;10233110;28;19989;-75
2021/12/31 21:36:23;;;;;;;;;;;;;;;;;;10235494;28;19922;-76
2021/12/31 21:41:27;;;;;;;;;;;;;;;;;;10236453;29;20338;-74
2021/12/31 21:46:30;;;;;;;;;;;;;;;;;;10231415;28;19926;-76
2021/12/31 21:51:33;;;;;;;;;;;;;;;;;;10229311;29;19962;-76
2021/12/31 21:56:36;;;;;;;;;;;;;;;;;;10239131;29;19933;-74
2021/12/31 22:01:38;;;;;;;;;;;;;;;;;;10237083;29;19997;-75
2021/12/31 22:06:41;;;;;;;;;;;;;;;;;;10236726;29;19922;-76
2021/12/31 22:11:44;;;;;;;;;;;;;;;;;;10235143;29;19923;-75
2021/12/31 22:16:47;;;;;;;;;;;;;;;;;;10233298;29;19985;-76
2021/12/31 22:21:50;;;;;;;;;;;;;;;;;;10223830;29;19981;-75
2021/12/31 22:26:54;;;;;;;;;;;;;;;;;;10234528;28;20040;-75
2021/12/31 22:31:56;;;;;;;;;;;;;;;;;;10234734;29;19922;-75
2021/12/31 22:36:59;;;;;;;;;;;;;;;;;;10234131;28;19930;-75
2021/12/31 22:42:02;;;;;;;;;;;;;;;;;;10230902;29;20025;-75
2021/12/31 22:47:08;;;;;;;;;;;;;;;;;;10225863;29;20025;-74
2021/12/31 22:52:11;;;;;;;;;;;;;;;;;;10218615;29;19922;-74
2021/12/31 22:57:14;;;;;;;;;;;;;;;;;;10227358;28;19923;-74
2021/12/31 23:02:17;;;;;;;;;;;;;;;;;;10230516;29;20303;-75
2021/12/31 23:07:20;;;;;;;;;;;;;;;;;;10254181;28;20355;-76
2021/12/31 23:12:22;;;;;;;;;;;;;;;;;;10234542;28;19968;-75
2021/12/31 23:17:25;;;;;;;;;;;;;;;;;;10230230;29;20487;-75
2021/12/31 23:22:28;;;;;;;;;;;;;;;;;;10224084;29;20543;-76
2021/12/31 23:27:38;;;;;;;;;;;;;;;;;;10228612;28;19993;-75
2021/12/31 23:32:40;;;;;;;;;;;;;;;;;;10231164;29;20319;-75
2021/12/31 23:37:43;;;;;;;;;;;;;;;;;;10255405;28;19927;-75
2021/12/31 23:42:46;;;;;;;;;;;;;;;;;;10239019;29;19973;-76
2021/12/31 23:47:49;;;;;;;;;;;;;;;;;;10257721;28;19934;-76
2021/12/31 23:52:52;;;;;;;;;;;;;;;;;;10255170;28;20010;-74
2021/12/31 23:57:55;;;;;;;;;;;;;;;;;;10239486;29;19926;-74
